Terminal Aerodrome Forecast
Issued by NWS Sioux Falls, SD

Home | Current Version | Previous Version | Graphics & Text | Print | Product List | Glossary On
Versions: 1 2 3 4 5 6 7 8 9 10 11 12 13 14
000
FTUS43 KFSD 010540
TAFFSD
TAF
KFSD 010540Z 0106/0206 17008KT P6SM SCT080
     FM010800 19008KT P6SM BKN070
      TEMPO 0108/0110 P6SM -SHRA BKN060
     FM011400 24009KT P6SM SCT060
     FM011600 30008KT P6SM SCT060
     FM020200 VRB04KT P6SM SKC=

USA.gov is the U.S. government's official web portal to all federal, state and local government web resources and services.